Time;durP1;ratioP1;P1;durP2;ratioP2;P2;SDS_P1;SDS_P2;PMS_P1;PMS_P2;Temp;Humidity;BMP_temperature;BMP_pressure;BME280_temperature;BME280_humidity;BME280_pressure;Samples;Min_cycle;Max_cycle;Signal;HPM_P1;HPM_P2
2022/05/27 00:01:50;;;;;;;11.07;5.03;;;;;;;;;;5049526;28;20024;-57
2022/05/27 00:04:16;;;;;;;8.52;4.05;;;;;;;;;;5046900;28;20029;-57
2022/05/27 00:06:41;;;;;;;7.18;4.68;;;;;;;;;;5045913;28;20425;-55
2022/05/27 00:09:06;;;;;;;7.05;4.13;;;;;;;;;;5047279;28;20029;-56
2022/05/27 00:11:32;;;;;;;9.15;5.07;;;;;;;;;;5047460;28;20623;-56
2022/05/27 00:13:57;;;;;;;6.53;3.70;;;;;;;;;;5049693;28;20439;-56
2022/05/27 00:16:23;;;;;;;9.07;3.95;;;;;;;;;;5048443;28;20484;-57
2022/05/27 00:18:49;;;;;;;8.35;3.78;;;;;;;;;;5048680;28;20078;-56
2022/05/27 00:21:14;;;;;;;7.03;3.65;;;;;;;;;;5048261;28;20086;-58
2022/05/27 00:23:40;;;;;;;6.13;3.47;;;;;;;;;;5049990;28;20044;-57
2022/05/27 00:26:06;;;;;;;6.35;3.90;;;;;;;;;;5049410;28;20029;-56
2022/05/27 00:28:32;;;;;;;5.18;3.33;;;;;;;;;;5046926;28;20048;-56
2022/05/27 00:30:57;;;;;;;12.45;5.80;;;;;;;;;;5048349;28;20123;-55
2022/05/27 00:33:22;;;;;;;8.45;4.07;;;;;;;;;;5052628;28;20035;-56
2022/05/27 00:35:49;;;;;;;8.75;4.43;;;;;;;;;;5049747;28;20028;-56
2022/05/27 00:38:15;;;;;;;6.93;3.95;;;;;;;;;;5051050;28;20029;-56
2022/05/27 00:40:46;;;;;;;8.82;3.60;;;;;;;;;;5045691;28;20029;-56
2022/05/27 00:43:12;;;;;;;9.95;3.75;;;;;;;;;;5046347;28;20436;-56
2022/05/27 00:45:41;;;;;;;4.70;3.38;;;;;;;;;;5051351;28;20028;-56
2022/05/27 00:48:13;;;;;;;3.97;2.85;;;;;;;;;;5052785;28;20040;-56
2022/05/27 00:50:42;;;;;;;7.60;3.30;;;;;;;;;;5048960;28;20102;-56
2022/05/27 00:53:10;;;;;;;6.18;2.95;;;;;;;;;;5048616;28;20476;-56
2022/05/27 00:55:43;;;;;;;6.90;3.00;;;;;;;;;;5046411;28;20036;-56
2022/05/27 00:58:17;;;;;;;6.93;3.78;;;;;;;;;;5049485;28;20407;-55
2022/05/27 01:00:43;;;;;;;5.70;3.30;;;;;;;;;;5062849;28;20061;-56
2022/05/27 01:03:12;;;;;;;8.27;6.18;;;;;;;;;;5048898;28;20071;-54
2022/05/27 01:05:40;;;;;;;6.60;3.05;;;;;;;;;;5043870;28;20055;-56
2022/05/27 01:08:08;;;;;;;3.65;2.40;;;;;;;;;;5048996;28;20029;-56
2022/05/27 01:10:45;;;;;;;7.85;7.25;;;;;;;;;;5046478;28;20087;-55
2022/05/27 01:13:51;;;;;;;5.38;3.25;;;;;;;;;;5046135;28;20033;-55
2022/05/27 01:16:52;;;;;;;3.70;2.70;;;;;;;;;;5049473;28;20516;-56
2022/05/27 01:22:44;;;;;;;5.75;3.20;;;;;;;;;;5052750;28;20415;-56
2022/05/27 01:25:32;;;;;;;4.45;3.40;;;;;;;;;;5049957;28;20072;-56
2022/05/27 01:28:35;;;;;;;5.28;2.90;;;;;;;;;;5052597;28;20028;-55
2022/05/27 01:31:32;;;;;;;5.18;3.05;;;;;;;;;;5052607;28;20032;-57
2022/05/27 01:34:00;;;;;;;4.53;3.08;;;;;;;;;;5053567;28;20424;-54
2022/05/27 01:36:49;;;;;;;5.85;3.22;;;;;;;;;;5056767;28;20039;-56
2022/05/27 01:39:17;;;;;;;3.58;2.95;;;;;;;;;;5054148;28;20108;-56
2022/05/27 01:42:14;;;;;;;4.25;2.83;;;;;;;;;;5053645;28;20068;-57
2022/05/27 01:44:46;;;;;;;6.55;3.67;;;;;;;;;;5049108;28;20021;-56
2022/05/27 01:47:20;;;;;;;6.93;2.55;;;;;;;;;;5054971;28;20510;-56
2022/05/27 01:49:54;;;;;;;5.18;2.90;;;;;;;;;;5058344;28;20131;-57
2022/05/27 01:52:31;;;;;;;6.10;2.50;;;;;;;;;;5057506;28;20028;-54
2022/05/27 01:55:17;;;;;;;3.03;2.45;;;;;;;;;;5050297;28;20391;-55
2022/05/27 01:57:48;;;;;;;3.50;2.30;;;;;;;;;;5052289;28;20541;-57
2022/05/27 02:00:15;;;;;;;6.15;3.15;;;;;;;;;;5050376;28;20029;-55
2022/05/27 02:02:51;;;;;;;7.82;2.83;;;;;;;;;;5050264;28;20033;-56
2022/05/27 02:05:31;;;;;;;5.30;2.55;;;;;;;;;;5046052;28;20519;-56
2022/05/27 02:08:03;;;;;;;6.88;2.50;;;;;;;;;;5042878;28;20497;-55
2022/05/27 02:10:43;;;;;;;3.47;2.47;;;;;;;;;;5049634;28;20093;-56
2022/05/27 02:13:16;;;;;;;5.30;2.38;;;;;;;;;;5048522;28;20493;-56
2022/05/27 02:15:44;;;;;;;4.13;2.33;;;;;;;;;;5048127;28;20131;-56
2022/05/27 02:18:12;;;;;;;6.07;2.53;;;;;;;;;;5047912;28;20025;-56
2022/05/27 02:20:44;;;;;;;5.20;2.42;;;;;;;;;;5048062;28;20040;-56
2022/05/27 02:23:26;;;;;;;3.88;2.45;;;;;;;;;;5051290;28;20562;-57
2022/05/27 02:25:55;;;;;;;3.13;2.38;;;;;;;;;;5046339;28;20025;-56
2022/05/27 02:28:28;;;;;;;2.88;2.58;;;;;;;;;;5052433;28;20116;-56
2022/05/27 02:31:06;;;;;;;7.13;2.78;;;;;;;;;;5048718;28;20178;-56
2022/05/27 02:36:38;;;;;;;3.33;3.03;;;;;;;;;;5048491;28;20081;-55
2022/05/27 02:39:07;;;;;;;4.43;2.63;;;;;;;;;;5055803;28;20097;-55
2022/05/27 02:41:45;;;;;;;2.47;2.27;;;;;;;;;;5053135;28;20495;-56
2022/05/27 02:44:22;;;;;;;4.97;2.28;;;;;;;;;;5048742;28;20064;-56
2022/05/27 02:47:08;;;;;;;4.20;2.55;;;;;;;;;;5049143;28;20028;-56
2022/05/27 02:49:37;;;;;;;6.80;2.80;;;;;;;;;;5056302;28;20151;-56
2022/05/27 02:52:39;;;;;;;3.85;2.78;;;;;;;;;;5055443;28;20045;-57
2022/05/27 02:55:07;;;;;;;3.78;2.45;;;;;;;;;;5052236;28;20068;-56
2022/05/27 02:57:36;;;;;;;3.50;2.50;;;;;;;;;;5058502;28;20274;-56
2022/05/27 03:00:07;;;;;;;4.68;2.28;;;;;;;;;;5056836;28;20029;-56
2022/05/27 03:02:32;;;;;;;5.18;2.20;;;;;;;;;;5046991;28;20051;-56
2022/05/27 03:05:00;;;;;;;4.13;2.58;;;;;;;;;;5047497;28;20423;-56
2022/05/27 03:07:28;;;;;;;4.57;2.53;;;;;;;;;;5050098;28;20134;-56
2022/05/27 03:10:15;;;;;;;5.97;2.38;;;;;;;;;;5049542;28;20399;-56
2022/05/27 03:13:02;;;;;;;3.63;2.38;;;;;;;;;;5050079;28;20029;-56
2022/05/27 03:15:43;;;;;;;9.27;2.55;;;;;;;;;;5048230;28;20594;-55
2022/05/27 03:18:24;;;;;;;3.05;2.22;;;;;;;;;;5049253;28;20032;-57
2022/05/27 03:21:17;;;;;;;5.25;3.05;;;;;;;;;;5050593;28;20055;-55
2022/05/27 03:24:02;;;;;;;6.43;3.40;;;;;;;;;;5050564;28;20043;-55
2022/05/27 03:26:30;;;;;;;4.40;2.55;;;;;;;;;;5047646;28;20020;-57
2022/05/27 03:29:10;;;;;;;3.38;2.25;;;;;;;;;;5051384;28;20032;-57
2022/05/27 03:31:41;;;;;;;5.13;2.35;;;;;;;;;;5050483;28;20044;-55
2022/05/27 03:34:15;;;;;;;6.90;2.90;;;;;;;;;;5041620;28;20057;-56
2022/05/27 03:36:57;;;;;;;6.38;3.33;;;;;;;;;;5048087;28;20291;-57
2022/05/27 03:39:29;;;;;;;10.93;5.03;;;;;;;;;;5053088;28;20017;-57
2022/05/27 03:42:04;;;;;;;4.75;3.20;;;;;;;;;;5048649;28;20087;-55
2022/05/27 03:44:33;;;;;;;6.40;3.47;;;;;;;;;;5048535;28;20138;-57
2022/05/27 03:47:00;;;;;;;4.25;2.40;;;;;;;;;;5055585;28;20344;-56
2022/05/27 03:49:26;;;;;;;4.57;2.50;;;;;;;;;;5054209;28;20039;-58
2022/05/27 03:51:54;;;;;;;6.60;2.80;;;;;;;;;;5058510;28;20032;-55
2022/05/27 03:54:21;;;;;;;3.53;2.22;;;;;;;;;;5049831;28;20028;-56
2022/05/27 03:56:47;;;;;;;7.22;2.97;;;;;;;;;;5055388;28;20064;-55
2022/05/27 03:59:13;;;;;;;4.25;2.35;;;;;;;;;;5056866;28;20049;-55
2022/05/27 04:01:42;;;;;;;3.80;2.40;;;;;;;;;;5046432;28;20515;-56
2022/05/27 04:04:10;;;;;;;4.20;2.25;;;;;;;;;;5047557;28;20098;-57
2022/05/27 04:06:36;;;;;;;3.75;2.25;;;;;;;;;;5046423;28;20121;-55
2022/05/27 04:09:02;;;;;;;6.72;3.42;;;;;;;;;;5047355;28;20021;-57
2022/05/27 04:11:28;;;;;;;5.60;2.45;;;;;;;;;;5047670;28;20021;-55
2022/05/27 04:13:54;;;;;;;4.65;3.35;;;;;;;;;;5048455;28;20032;-55
2022/05/27 04:16:20;;;;;;;3.17;2.40;;;;;;;;;;5048603;28;20476;-57
2022/05/27 04:18:45;;;;;;;5.57;2.60;;;;;;;;;;5049541;28;20496;-56
2022/05/27 04:21:11;;;;;;;4.32;3.08;;;;;;;;;;5048371;28;20116;-56
2022/05/27 04:23:37;;;;;;;5.78;2.75;;;;;;;;;;5051584;28;20107;-56
2022/05/27 04:26:03;;;;;;;6.32;2.78;;;;;;;;;;5049390;28;20364;-55
2022/05/27 04:28:28;;;;;;;3.88;2.42;;;;;;;;;;5047724;28;20183;-56
2022/05/27 04:30:54;;;;;;;7.07;2.70;;;;;;;;;;5052029;28;20081;-57
2022/05/27 04:33:19;;;;;;;6.45;2.97;;;;;;;;;;5050829;28;20363;-56
2022/05/27 04:35:46;;;;;;;7.30;2.50;;;;;;;;;;5051144;28;20066;-56
2022/05/27 04:38:11;;;;;;;5.65;2.72;;;;;;;;;;5054091;28;20531;-56
2022/05/27 04:40:37;;;;;;;9.05;2.80;;;;;;;;;;5045904;28;20033;-56
2022/05/27 04:43:02;;;;;;;5.95;2.83;;;;;;;;;;5053534;28;20025;-55
2022/05/27 04:45:29;;;;;;;6.47;5.70;;;;;;;;;;5051127;28;20087;-55
2022/05/27 04:47:55;;;;;;;5.57;2.88;;;;;;;;;;5053029;28;20025;-55
2022/05/27 04:50:21;;;;;;;7.30;3.45;;;;;;;;;;5056132;28;20086;-56
2022/05/27 04:52:47;;;;;;;10.93;5.70;;;;;;;;;;5059162;28;20025;-56
2022/05/27 04:55:15;;;;;;;5.32;3.40;;;;;;;;;;5056421;28;20123;-55
2022/05/27 04:57:44;;;;;;;8.80;3.80;;;;;;;;;;5052752;28;20488;-56
2022/05/27 05:00:19;;;;;;;4.88;2.85;;;;;;;;;;5050123;28;20488;-56
2022/05/27 05:02:45;;;;;;;6.07;3.00;;;;;;;;;;5050499;28;20033;-55
2022/05/27 05:05:13;;;;;;;6.03;3.03;;;;;;;;;;5049779;28;20455;-56
2022/05/27 05:07:40;;;;;;;5.43;2.92;;;;;;;;;;5050893;28;20025;-56
2022/05/27 05:10:08;;;;;;;5.50;3.17;;;;;;;;;;5050333;28;20388;-56
2022/05/27 05:12:33;;;;;;;4.60;2.67;;;;;;;;;;5052476;28;20097;-55
2022/05/27 05:14:59;;;;;;;4.47;2.70;;;;;;;;;;5052350;28;20025;-55
2022/05/27 05:17:24;;;;;;;4.30;2.90;;;;;;;;;;5050529;28;20369;-56
2022/05/27 05:19:53;;;;;;;6.72;2.90;;;;;;;;;;5049021;28;20013;-57
2022/05/27 05:22:20;;;;;;;5.97;3.47;;;;;;;;;;5050550;28;20116;-55
2022/05/27 05:24:45;;;;;;;5.85;3.25;;;;;;;;;;5054731;28;20032;-54
2022/05/27 05:27:11;;;;;;;6.38;2.88;;;;;;;;;;5048349;28;20075;-55
2022/05/27 05:29:36;;;;;;;6.75;4.10;;;;;;;;;;5054144;28;20033;-56
2022/05/27 05:32:04;;;;;;;5.88;3.35;;;;;;;;;;5049392;28;20031;-55
2022/05/27 05:34:30;;;;;;;7.97;3.45;;;;;;;;;;5050488;28;20399;-57
2022/05/27 05:36:56;;;;;;;6.05;3.28;;;;;;;;;;5049635;28;20036;-56
2022/05/27 05:39:22;;;;;;;6.60;3.30;;;;;;;;;;5055646;28;20024;-55
2022/05/27 05:41:57;;;;;;;11.05;3.78;;;;;;;;;;5054762;28;20029;-56
2022/05/27 05:44:22;;;;;;;7.22;3.88;;;;;;;;;;5056365;28;20043;-56
2022/05/27 05:46:49;;;;;;;9.18;3.67;;;;;;;;;;5056630;28;20460;-55
2022/05/27 05:49:14;;;;;;;7.60;2.92;;;;;;;;;;5058044;28;20029;-56
2022/05/27 05:51:39;;;;;;;7.30;3.55;;;;;;;;;;5049961;28;20033;-56
2022/05/27 05:54:05;;;;;;;7.93;3.10;;;;;;;;;;5052634;28;20491;-56
2022/05/27 05:56:31;;;;;;;9.82;3.35;;;;;;;;;;5048566;28;20021;-56
2022/05/27 05:58:57;;;;;;;14.10;7.63;;;;;;;;;;5049361;28;20538;-56
2022/05/27 06:01:22;;;;;;;8.50;3.53;;;;;;;;;;5048229;28;20037;-56
2022/05/27 06:03:48;;;;;;;7.15;3.10;;;;;;;;;;5046166;28;20025;-56
2022/05/27 06:06:13;;;;;;;4.22;2.17;;;;;;;;;;5048861;28;20041;-56
2022/05/27 06:08:39;;;;;;;5.20;2.72;;;;;;;;;;5047926;28;20029;-56
2022/05/27 06:11:07;;;;;;;4.50;2.22;;;;;;;;;;5050744;28;20055;-56
2022/05/27 06:13:33;;;;;;;9.98;5.35;;;;;;;;;;5053622;28;20095;-56
2022/05/27 06:15:58;;;;;;;6.10;3.03;;;;;;;;;;5050552;28;20021;-56
2022/05/27 06:18:24;;;;;;;4.28;2.63;;;;;;;;;;5052153;28;20036;-56
2022/05/27 06:20:50;;;;;;;7.20;3.13;;;;;;;;;;5048137;28;20129;-56
2022/05/27 06:23:15;;;;;;;5.97;3.05;;;;;;;;;;5053526;28;20036;-55
2022/05/27 06:25:41;;;;;;;6.43;2.55;;;;;;;;;;5052889;28;20033;-56
2022/05/27 06:36:20;;;;;;;4.72;3.13;;;;;;;;;;5046568;28;20471;-56
2022/05/27 06:38:46;;;;;;;4.32;3.00;;;;;;;;;;5052180;28;20119;-55
2022/05/27 06:41:12;;;;;;;5.53;3.45;;;;;;;;;;5049438;28;20021;-57
2022/05/27 06:43:37;;;;;;;5.00;3.08;;;;;;;;;;5050437;28;20043;-56
2022/05/27 06:46:03;;;;;;;6.65;3.00;;;;;;;;;;5055085;28;20029;-56
2022/05/27 06:48:28;;;;;;;7.35;3.75;;;;;;;;;;5055771;28;20128;-56
2022/05/27 06:50:53;;;;;;;6.03;3.10;;;;;;;;;;5059217;28;20029;-57
2022/05/27 06:53:19;;;;;;;5.65;3.30;;;;;;;;;;5054525;28;20454;-55
2022/05/27 06:55:52;;;;;;;6.40;3.25;;;;;;;;;;5051402;28;20029;-56
2022/05/27 06:58:17;;;;;;;4.25;3.15;;;;;;;;;;5047125;28;20472;-56
2022/05/27 07:00:43;;;;;;;6.82;3.20;;;;;;;;;;5048937;28;20028;-55
2022/05/27 07:03:08;;;;;;;5.35;3.30;;;;;;;;;;5049340;28;20055;-55
2022/05/27 07:05:35;;;;;;;4.88;3.08;;;;;;;;;;5048715;28;20052;-55
2022/05/27 07:08:05;;;;;;;6.15;3.13;;;;;;;;;;5049871;28;20035;-56
2022/05/27 07:10:31;;;;;;;3.92;2.90;;;;;;;;;;5052237;28;20036;-55
2022/05/27 07:12:59;;;;;;;7.28;2.60;;;;;;;;;;5049595;28;20028;-56
2022/05/27 07:15:29;;;;;;;4.97;2.72;;;;;;;;;;5048081;28;20082;-56
2022/05/27 07:17:55;;;;;;;5.03;2.92;;;;;;;;;;5046546;28;20028;-56
2022/05/27 07:20:21;;;;;;;7.20;3.28;;;;;;;;;;5051710;28;20028;-56
2022/05/27 07:22:47;;;;;;;4.47;3.10;;;;;;;;;;5051886;28;20428;-57
2022/05/27 07:25:13;;;;;;;6.63;3.00;;;;;;;;;;5050980;28;20060;-56
2022/05/27 07:27:40;;;;;;;7.88;3.17;;;;;;;;;;5048403;28;20028;-57
2022/05/27 07:30:07;;;;;;;5.80;3.50;;;;;;;;;;5047547;28;20065;-57
2022/05/27 07:32:34;;;;;;;5.38;3.55;;;;;;;;;;5048454;28;20041;-57
2022/05/27 07:35:00;;;;;;;4.65;3.13;;;;;;;;;;5048055;28;20091;-57
2022/05/27 07:37:25;;;;;;;4.45;2.75;;;;;;;;;;5047729;28;20484;-57
2022/05/27 07:39:51;;;;;;;6.38;3.13;;;;;;;;;;5053350;28;20037;-57
2022/05/27 07:42:16;;;;;;;7.78;3.63;;;;;;;;;;5055545;28;20032;-57
2022/05/27 07:44:42;;;;;;;4.15;2.78;;;;;;;;;;5050058;28;20033;-57
2022/05/27 07:47:07;;;;;;;5.47;2.80;;;;;;;;;;5042902;28;20158;-58
2022/05/27 07:49:33;;;;;;;6.82;2.75;;;;;;;;;;5045992;28;20082;-59
2022/05/27 07:51:59;;;;;;;6.82;2.67;;;;;;;;;;5053332;28;20064;-59
2022/05/27 07:54:24;;;;;;;4.00;2.92;;;;;;;;;;5051933;28;20036;-60
2022/05/27 07:56:50;;;;;;;6.10;3.08;;;;;;;;;;5047244;28;20302;-59
2022/05/27 07:59:15;;;;;;;4.15;2.65;;;;;;;;;;5047797;28;20532;-59
2022/05/27 08:01:41;;;;;;;67.43;23.33;;;;;;;;;;5047767;28;20055;-59
2022/05/27 08:04:07;;;;;;;34.42;13.73;;;;;;;;;;5046912;28;20029;-58
2022/05/27 08:06:33;;;;;;;5.93;3.38;;;;;;;;;;5046134;28;20048;-58
2022/05/27 08:08:58;;;;;;;9.07;4.63;;;;;;;;;;5047300;28;20031;-59
2022/05/27 08:11:24;;;;;;;6.20;3.40;;;;;;;;;;5049243;28;20182;-58
2022/05/27 08:13:51;;;;;;;7.20;3.63;;;;;;;;;;5043905;28;20192;-58
2022/05/27 08:16:17;;;;;;;3.38;2.50;;;;;;;;;;5050221;28;20056;-58
2022/05/27 08:18:42;;;;;;;12.20;7.40;;;;;;;;;;5049859;28;20051;-59
2022/05/27 08:21:08;;;;;;;9.90;5.63;;;;;;;;;;5048272;28;20033;-58
2022/05/27 08:23:33;;;;;;;7.22;3.28;;;;;;;;;;5050953;28;20121;-60
2022/05/27 08:25:59;;;;;;;6.63;3.72;;;;;;;;;;5046091;28;20039;-61
2022/05/27 08:28:25;;;;;;;26.38;8.98;;;;;;;;;;5051161;28;20391;-59
2022/05/27 08:30:55;;;;;;;7.00;4.00;;;;;;;;;;5049976;28;20024;-60
2022/05/27 08:33:20;;;;;;;9.27;4.10;;;;;;;;;;5051625;28;21044;-57
2022/05/27 08:38:33;;;;;;;7.53;3.30;;;;;;;;;;5044670;28;20507;-59
2022/05/27 08:41:08;;;;;;;5.43;2.90;;;;;;;;;;5047108;28;20083;-59
2022/05/27 08:43:48;;;;;;;9.27;3.42;;;;;;;;;;5053995;28;20408;-59
2022/05/27 08:46:33;;;;;;;5.18;3.22;;;;;;;;;;5049935;28;20028;-58
2022/05/27 08:49:03;;;;;;;6.13;3.15;;;;;;;;;;5046310;28;20427;-59
2022/05/27 08:51:40;;;;;;;5.97;2.92;;;;;;;;;;5050069;28;20037;-59
2022/05/27 08:54:17;;;;;;;5.10;3.13;;;;;;;;;;5047995;28;20033;-59
2022/05/27 08:59:37;;;;;;;5.13;3.53;;;;;;;;;;5047546;28;20479;-59
2022/05/27 09:02:16;;;;;;;6.40;3.28;;;;;;;;;;5046319;28;20100;-59
2022/05/27 09:05:15;;;;;;;4.72;3.22;;;;;;;;;;5045877;28;20029;-56
2022/05/27 09:07:52;;;;;;;7.38;3.90;;;;;;;;;;5049776;28;20029;-59
2022/05/27 09:10:29;;;;;;;11.38;4.70;;;;;;;;;;5046674;28;20120;-59
2022/05/27 09:13:35;;;;;;;6.88;3.85;;;;;;;;;;5048674;28;20036;-59
2022/05/27 09:16:13;;;;;;;7.47;3.30;;;;;;;;;;5044064;28;20500;-59
2022/05/27 09:19:04;;;;;;;7.53;3.90;;;;;;;;;;5044707;28;20488;-58
2022/05/27 09:22:00;;;;;;;5.93;3.90;;;;;;;;;;5046986;28;20052;-59
2022/05/27 09:24:46;;;;;;;5.75;3.47;;;;;;;;;;5045529;28;20020;-57
2022/05/27 09:27:31;;;;;;;6.22;3.10;;;;;;;;;;5043620;28;20037;-59
2022/05/27 09:30:04;;;;;;;4.10;3.28;;;;;;;;;;5045502;28;20017;-58
2022/05/27 09:32:54;;;;;;;5.78;3.42;;;;;;;;;;5048242;28;20040;-59
2022/05/27 09:35:35;;;;;;;5.03;3.92;;;;;;;;;;5047012;28;20024;-58
2022/05/27 09:38:03;;;;;;;9.40;4.10;;;;;;;;;;5054066;28;20040;-59
2022/05/27 09:40:35;;;;;;;6.22;3.42;;;;;;;;;;5049907;28;20391;-58
2022/05/27 09:43:21;;;;;;;4.63;3.15;;;;;;;;;;5048404;28;20025;-59
2022/05/27 09:46:15;;;;;;;11.50;6.35;;;;;;;;;;5048530;28;20027;-58
2022/05/27 09:48:44;;;;;;;5.60;3.75;;;;;;;;;;5049341;28;20122;-60
2022/05/27 09:51:12;;;;;;;6.03;3.22;;;;;;;;;;5047370;28;20036;-59
2022/05/27 09:53:41;;;;;;;6.53;3.60;;;;;;;;;;5050823;28;20116;-59
2022/05/27 09:56:11;;;;;;;5.03;3.47;;;;;;;;;;5045389;28;20105;-59
2022/05/27 09:58:44;;;;;;;6.07;3.42;;;;;;;;;;5048058;28;20512;-59
2022/05/27 10:01:27;;;;;;;11.27;3.47;;;;;;;;;;5044492;28;20065;-58
2022/05/27 10:04:00;;;;;;;6.28;3.00;;;;;;;;;;5048944;28;20108;-60
2022/05/27 10:06:29;;;;;;;4.25;3.08;;;;;;;;;;5046399;28;20025;-59
2022/05/27 10:08:58;;;;;;;6.55;3.20;;;;;;;;;;5050534;28;20017;-58
2022/05/27 10:11:23;;;;;;;;;;;;;;;;;;5050210;28;20032;-59
2022/05/27 10:14:22;;;;;;;5.10;3.38;;;;;;;;;;5050555;28;19917;-59
2022/05/27 10:17:11;;;;;;;4.95;3.50;;;;;;;;;;5047584;28;20028;-59
2022/05/27 10:19:42;;;;;;;5.13;3.03;;;;;;;;;;5047303;28;20035;-60
2022/05/27 10:22:24;;;;;;;9.57;3.60;;;;;;;;;;5049800;28;20438;-59
2022/05/27 10:24:59;;;;;;;3.60;2.70;;;;;;;;;;5048870;28;20471;-60
2022/05/27 10:27:33;;;;;;;5.90;2.90;;;;;;;;;;5044420;28;20120;-59
2022/05/27 10:30:01;;;;;;;4.25;2.50;;;;;;;;;;5047516;28;20044;-59
2022/05/27 10:32:37;;;;;;;6.57;2.72;;;;;;;;;;5050142;28;20037;-60
2022/05/27 10:35:06;;;;;;;4.60;2.70;;;;;;;;;;5052534;28;20113;-58
2022/05/27 10:37:56;;;;;;;3.90;2.50;;;;;;;;;;5053325;28;20020;-58
2022/05/27 10:40:36;;;;;;;5.07;3.33;;;;;;;;;;5055065;28;20098;-58
2022/05/27 10:44:00;;;;;;;3.28;2.70;;;;;;;;;;5048144;28;20098;-59
2022/05/27 10:46:33;;;;;;;5.97;3.22;;;;;;;;;;5021936;28;20140;-57
2022/05/27 10:49:17;;;;;;;3.95;2.78;;;;;;;;;;5045321;28;20123;-59
2022/05/27 10:52:10;;;;;;;4.80;3.15;;;;;;;;;;5049626;28;20031;-60
2022/05/27 10:54:55;;;;;;;4.57;2.60;;;;;;;;;;5046990;28;20044;-60
2022/05/27 11:04:06;;;;;;;4.60;2.88;;;;;;;;;;5042340;28;20530;-60
2022/05/27 11:06:59;;;;;;;6.20;2.50;;;;;;;;;;5040434;28;20052;-60
2022/05/27 11:09:59;;;;;;;6.28;3.03;;;;;;;;;;5047843;28;20033;-61
2022/05/27 11:15:37;;;;;;;4.30;2.40;;;;;;;;;;5047338;28;20040;-61
2022/05/27 11:18:18;;;;;;;5.57;2.75;;;;;;;;;;5049933;28;20020;-60
2022/05/27 11:21:05;;;;;;;4.13;2.70;;;;;;;;;;5051490;28;20028;-61
2022/05/27 11:23:36;;;;;;;4.78;2.50;;;;;;;;;;5048896;28;20040;-62
2022/05/27 11:26:20;;;;;;;2.72;2.10;;;;;;;;;;5051679;28;20029;-60
2022/05/27 11:28:57;;;;;;;3.42;2.30;;;;;;;;;;5052985;28;20033;-61
2022/05/27 11:31:41;;;;;;;5.32;2.65;;;;;;;;;;5053088;28;20389;-61
2022/05/27 11:34:13;;;;;;;3.63;2.50;;;;;;;;;;5049796;28;20487;-61
2022/05/27 11:36:45;;;;;;;5.20;2.28;;;;;;;;;;5046911;28;20036;-58
2022/05/27 11:39:22;;;;;;;3.53;2.15;;;;;;;;;;5050446;28;20071;-60
2022/05/27 11:42:13;;;;;;;3.97;2.35;;;;;;;;;;5049541;28;20155;-60
2022/05/27 11:44:53;;;;;;;9.05;4.53;;;;;;;;;;5042784;28;20051;-59
2022/05/27 11:47:29;;;;;;;10.35;5.05;;;;;;;;;;5045046;28;20518;-59
2022/05/27 11:50:12;;;;;;;13.90;5.03;;;;;;;;;;5044648;28;20025;-59
2022/05/27 11:53:16;;;;;;;14.38;3.63;;;;;;;;;;5044776;28;20120;-59
2022/05/27 11:55:55;;;;;;;5.25;2.90;;;;;;;;;;5047281;28;20132;-59
2022/05/27 11:58:45;;;;;;;8.10;3.28;;;;;;;;;;5046499;28;20048;-59
2022/05/27 12:01:19;;;;;;;10.93;4.10;;;;;;;;;;5048101;28;20070;-58
2022/05/27 12:03:57;;;;;;;4.47;2.58;;;;;;;;;;5046977;28;20029;-60
2022/05/27 12:06:45;;;;;;;5.93;3.05;;;;;;;;;;5044741;28;20520;-58
2022/05/27 12:09:27;;;;;;;4.75;2.90;;;;;;;;;;5046881;28;20041;-58
2022/05/27 12:12:01;;;;;;;5.03;2.35;;;;;;;;;;5046334;28;20050;-59
2022/05/27 12:14:38;;;;;;;5.40;2.03;;;;;;;;;;5047936;28;20033;-58
2022/05/27 12:17:09;;;;;;;2.47;2.10;;;;;;;;;;5044752;28;20029;-57
2022/05/27 12:19:39;;;;;;;5.78;2.88;;;;;;;;;;5039881;28;20496;-57
2022/05/27 12:22:27;;;;;;;2.58;1.90;;;;;;;;;;5048470;28;20182;-57
2022/05/27 16:51:16;;;;;;;2.10;1.58;;;;;;;;;;5089647;27;20397;-59
2022/05/27 16:53:44;;;;;;;3.92;1.80;;;;;;;;;;5083731;28;20036;-59
2022/05/27 16:56:10;;;;;;;2.67;2.03;;;;;;;;;;5086112;28;20548;-60
2022/05/27 16:58:37;;;;;;;2.10;1.50;;;;;;;;;;5080254;28;20295;-59
2022/05/27 17:01:03;;;;;;;2.75;1.52;;;;;;;;;;5080501;28;20423;-59
2022/05/27 17:03:30;;;;;;;1.73;1.23;;;;;;;;;;5086786;28;20043;-59
2022/05/27 17:05:57;;;;;;;2.05;1.50;;;;;;;;;;5084551;28;20035;-59
2022/05/27 17:08:26;;;;;;;2.17;1.60;;;;;;;;;;5079536;28;20028;-59
2022/05/27 17:10:52;;;;;;;2.47;1.25;;;;;;;;;;5081623;28;20032;-59
2022/05/27 17:13:17;;;;;;;1.90;1.40;;;;;;;;;;5088641;28;20023;-59
2022/05/27 17:15:43;;;;;;;1.80;1.35;;;;;;;;;;5081041;28;20028;-59
2022/05/27 17:18:08;;;;;;;1.80;1.38;;;;;;;;;;5083831;28;20024;-59
2022/05/27 17:20:34;;;;;;;2.40;1.70;;;;;;;;;;5089897;28;20335;-59
2022/05/27 17:22:59;;;;;;;2.95;2.28;;;;;;;;;;5078675;28;20075;-59
2022/05/27 17:25:25;;;;;;;7.45;1.58;;;;;;;;;;5079917;28;20126;-59
2022/05/27 17:27:50;;;;;;;2.28;1.50;;;;;;;;;;5082433;28;20025;-59
2022/05/27 17:30:16;;;;;;;3.78;1.40;;;;;;;;;;5076216;28;20021;-59
2022/05/27 17:32:42;;;;;;;2.03;1.30;;;;;;;;;;5086684;28;20074;-59
2022/05/27 17:35:09;;;;;;;3.05;1.58;;;;;;;;;;5086445;28;20502;-59
2022/05/27 17:37:34;;;;;;;2.13;1.55;;;;;;;;;;5085500;28;20016;-58
2022/05/27 17:40:10;;;;;;;1.83;1.42;;;;;;;;;;5085602;28;20390;-59
2022/05/27 17:42:36;;;;;;;3.05;1.80;;;;;;;;;;5081835;28;20490;-59
2022/05/27 17:45:04;;;;;;;2.53;1.98;;;;;;;;;;5084945;28;20153;-59
2022/05/27 17:52:57;;;;;;;4.47;1.90;;;;;;;;;;5073503;28;20093;-59
2022/05/27 17:55:22;;;;;;;2.53;1.80;;;;;;;;;;5068770;28;20344;-59
2022/05/27 17:57:49;;;;;;;4.18;1.90;;;;;;;;;;5069172;28;20024;-59
2022/05/27 18:00:15;;;;;;;5.13;2.50;;;;;;;;;;5071521;28;20030;-59
2022/05/27 18:02:41;;;;;;;3.60;1.60;;;;;;;;;;5065161;28;20021;-59
2022/05/27 18:05:06;;;;;;;3.05;1.50;;;;;;;;;;5070812;28;20089;-59
2022/05/27 18:07:32;;;;;;;1.63;1.40;;;;;;;;;;5065840;28;20035;-59
2022/05/27 18:09:57;;;;;;;2.13;1.45;;;;;;;;;;5069334;28;20024;-59
2022/05/27 18:12:24;;;;;;;2.83;1.50;;;;;;;;;;5075125;28;20048;-59
2022/05/27 18:14:49;;;;;;;2.72;1.40;;;;;;;;;;5076985;28;20426;-59
2022/05/27 18:17:14;;;;;;;2.78;1.60;;;;;;;;;;5073463;28;20037;-59
2022/05/27 18:19:40;;;;;;;2.45;1.30;;;;;;;;;;5068305;28;20471;-59
2022/05/27 18:22:05;;;;;;;2.40;1.70;;;;;;;;;;5067072;28;20033;-59
2022/05/27 18:24:31;;;;;;;1.77;1.42;;;;;;;;;;5064548;28;20033;-58
2022/05/27 18:26:57;;;;;;;1.95;1.38;;;;;;;;;;5060715;28;20523;-58
2022/05/27 18:29:23;;;;;;;1.63;1.50;;;;;;;;;;5065216;28;20029;-59
2022/05/27 18:31:48;;;;;;;1.67;1.38;;;;;;;;;;5071564;28;20040;-59
2022/05/27 18:34:14;;;;;;;2.10;1.40;;;;;;;;;;5069411;28;20119;-58
2022/05/27 18:36:39;;;;;;;2.60;1.63;;;;;;;;;;5071675;28;20025;-59
2022/05/27 18:39:05;;;;;;;8.82;2.05;;;;;;;;;;5069479;28;20082;-59
2022/05/27 18:41:32;;;;;;;3.40;2.00;;;;;;;;;;5069923;28;20116;-59
2022/05/27 18:43:59;;;;;;;3.80;2.00;;;;;;;;;;5073002;28;20020;-58
2022/05/27 18:46:25;;;;;;;4.70;1.77;;;;;;;;;;5069114;28;20032;-58
2022/05/27 18:48:51;;;;;;;3.42;1.80;;;;;;;;;;5061993;28;20021;-58
2022/05/27 18:51:16;;;;;;;2.95;1.80;;;;;;;;;;5074521;28;20024;-59
2022/05/27 18:53:46;;;;;;;4.38;2.40;;;;;;;;;;5073458;28;20390;-59
2022/05/27 18:56:12;;;;;;;4.63;2.70;;;;;;;;;;5068081;28;20020;-59
2022/05/27 18:58:38;;;;;;;6.18;3.38;;;;;;;;;;5065331;28;20089;-59
2022/05/27 19:01:03;;;;;;;6.32;3.00;;;;;;;;;;5062496;28;20474;-59
2022/05/27 19:03:29;;;;;;;6.55;4.15;;;;;;;;;;5063011;28;20498;-59
2022/05/27 19:05:57;;;;;;;4.55;2.40;;;;;;;;;;5069832;28;20139;-58
2022/05/27 19:08:24;;;;;;;3.45;2.38;;;;;;;;;;5056677;28;20479;-59
2022/05/27 19:10:50;;;;;;;2.78;1.92;;;;;;;;;;5056400;28;20050;-58
2022/05/27 19:13:18;;;;;;;3.95;2.10;;;;;;;;;;5067324;28;20048;-59
2022/05/27 19:15:44;;;;;;;8.02;3.70;;;;;;;;;;5063173;28;20099;-59
2022/05/27 19:18:10;;;;;;;2.72;1.98;;;;;;;;;;5062211;28;20135;-58
2022/05/27 19:23:19;;;;;;;2.53;2.15;;;;;;;;;;5053451;28;20517;-58
2022/05/27 19:25:46;;;;;;;3.88;2.15;;;;;;;;;;5052739;28;20032;-58
2022/05/27 19:28:12;;;;;;;2.72;2.15;;;;;;;;;;5056392;28;20499;-58
2022/05/27 19:30:38;;;;;;;2.55;2.03;;;;;;;;;;5057556;28;20367;-58
2022/05/27 19:33:05;;;;;;;3.58;2.20;;;;;;;;;;5060054;28;20024;-58
2022/05/27 19:35:32;;;;;;;2.85;2.30;;;;;;;;;;5055392;28;20025;-58
2022/05/27 19:37:58;;;;;;;4.10;2.08;;;;;;;;;;5060558;28;20112;-58
2022/05/27 19:40:24;;;;;;;4.90;2.28;;;;;;;;;;5067935;28;20020;-58
2022/05/27 19:42:49;;;;;;;3.90;2.58;;;;;;;;;;5064763;28;20020;-58
2022/05/27 19:45:15;;;;;;;3.95;2.65;;;;;;;;;;5063876;28;20107;-59
2022/05/27 19:47:40;;;;;;;4.95;3.05;;;;;;;;;;5068801;28;20525;-57
2022/05/27 19:50:07;;;;;;;2.95;2.33;;;;;;;;;;5062329;28;20033;-58
2022/05/27 19:52:33;;;;;;;3.70;2.60;;;;;;;;;;5059157;28;20047;-58
2022/05/27 19:54:58;;;;;;;3.30;2.60;;;;;;;;;;5060597;28;20032;-58
2022/05/27 20:00:08;;;;;;;3.35;2.35;;;;;;;;;;5067545;28;20576;-59
2022/05/27 20:05:18;;;;;;;3.85;2.97;;;;;;;;;;5070400;28;20084;-58
2022/05/27 20:07:44;;;;;;;4.18;2.53;;;;;;;;;;5072406;28;20032;-58
2022/05/27 20:10:23;;;;;;;3.15;2.50;;;;;;;;;;5077324;28;20012;-57
2022/05/27 20:12:49;;;;;;;3.03;2.45;;;;;;;;;;5061694;28;20059;-57
2022/05/27 20:15:18;;;;;;;3.63;2.45;;;;;;;;;;5061621;28;20501;-58
2022/05/27 20:17:46;;;;;;;;;;;;;;;;;;5061203;28;20093;-57